sensor_id;sensor_type;location;lat;lon;timestamp;P1;durP1;ratioP1;P2;durP2;ratioP2
77598;SDS011;66758;52.078;5.070;2023-02-28T00:00:48;5.97;;;2.50;;
77598;SDS011;66758;52.078;5.070;2023-02-28T00:03:14;6.93;;;2.60;;
77598;SDS011;66758;52.078;5.070;2023-02-28T00:05:40;7.10;;;2.38;;
77598;SDS011;66758;52.078;5.070;2023-02-28T00:08:06;4.90;;;2.15;;
77598;SDS011;66758;52.078;5.070;2023-02-28T00:10:32;6.87;;;2.17;;
77598;SDS011;66758;52.078;5.070;2023-02-28T00:13:00;6.47;;;1.95;;
77598;SDS011;66758;52.078;5.070;2023-02-28T00:15:29;5.53;;;1.67;;
77598;SDS011;66758;52.078;5.070;2023-02-28T00:17:56;5.75;;;2.38;;
77598;SDS011;66758;52.078;5.070;2023-02-28T00:20:22;5.77;;;2.00;;
77598;SDS011;66758;52.078;5.070;2023-02-28T00:22:49;4.90;;;1.77;;
77598;SDS011;66758;52.078;5.070;2023-02-28T00:25:17;4.53;;;1.75;;
77598;SDS011;66758;52.078;5.070;2023-02-28T00:27:48;5.70;;;2.10;;
77598;SDS011;66758;52.078;5.070;2023-02-28T00:30:16;6.10;;;1.87;;
77598;SDS011;66758;52.078;5.070;2023-02-28T00:32:44;4.47;;;1.40;;
77598;SDS011;66758;52.078;5.070;2023-02-28T00:35:10;3.30;;;1.35;;
77598;SDS011;66758;52.078;5.070;2023-02-28T00:37:36;5.03;;;1.97;;
77598;SDS011;66758;52.078;5.070;2023-02-28T00:40:02;4.20;;;1.70;;
77598;SDS011;66758;52.078;5.070;2023-02-28T00:42:32;5.50;;;1.95;;
77598;SDS011;66758;52.078;5.070;2023-02-28T00:44:58;7.85;;;2.05;;
77598;SDS011;66758;52.078;5.070;2023-02-28T00:47:26;11.45;;;2.83;;
77598;SDS011;66758;52.078;5.070;2023-02-28T00:49:52;4.50;;;2.10;;
77598;SDS011;66758;52.078;5.070;2023-02-28T00:52:17;4.33;;;1.50;;
77598;SDS011;66758;52.078;5.070;2023-02-28T00:54:43;4.60;;;2.22;;
77598;SDS011;66758;52.078;5.070;2023-02-28T00:57:08;5.50;;;1.97;;
77598;SDS011;66758;52.078;5.070;2023-02-28T00:59:34;4.47;;;1.70;;
77598;SDS011;66758;52.078;5.070;2023-02-28T01:02:00;6.70;;;1.83;;
77598;SDS011;66758;52.078;5.070;2023-02-28T01:04:25;3.70;;;2.13;;
77598;SDS011;66758;52.078;5.070;2023-02-28T01:06:51;4.57;;;1.85;;
77598;SDS011;66758;52.078;5.070;2023-02-28T01:09:17;4.43;;;2.10;;
77598;SDS011;66758;52.078;5.070;2023-02-28T01:11:42;6.00;;;1.75;;
77598;SDS011;66758;52.078;5.070;2023-02-28T01:14:11;5.40;;;1.90;;
77598;SDS011;66758;52.078;5.070;2023-02-28T01:16:38;4.15;;;1.80;;
77598;SDS011;66758;52.078;5.070;2023-02-28T01:19:03;6.75;;;2.00;;
77598;SDS011;66758;52.078;5.070;2023-02-28T01:21:29;5.63;;;1.77;;
77598;SDS011;66758;52.078;5.070;2023-02-28T01:23:56;5.20;;;1.75;;
77598;SDS011;66758;52.078;5.070;2023-02-28T01:26:22;4.68;;;2.03;;
77598;SDS011;66758;52.078;5.070;2023-02-28T01:28:49;3.90;;;2.03;;
77598;SDS011;66758;52.078;5.070;2023-02-28T01:31:16;3.75;;;1.80;;
77598;SDS011;66758;52.078;5.070;2023-02-28T01:33:44;5.03;;;1.85;;
77598;SDS011;66758;52.078;5.070;2023-02-28T01:36:13;6.30;;;2.17;;
77598;SDS011;66758;52.078;5.070;2023-02-28T01:38:40;7.25;;;1.80;;
77598;SDS011;66758;52.078;5.070;2023-02-28T01:41:06;7.93;;;2.13;;
77598;SDS011;66758;52.078;5.070;2023-02-28T01:46:44;6.88;;;1.83;;
77598;SDS011;66758;52.078;5.070;2023-02-28T01:49:14;4.90;;;1.87;;
77598;SDS011;66758;52.078;5.070;2023-02-28T01:51:44;6.43;;;2.20;;
77598;SDS011;66758;52.078;5.070;2023-02-28T01:54:18;5.70;;;2.20;;
77598;SDS011;66758;52.078;5.070;2023-02-28T01:56:49;6.13;;;2.25;;
77598;SDS011;66758;52.078;5.070;2023-02-28T01:59:24;7.30;;;2.60;;
77598;SDS011;66758;52.078;5.070;2023-02-28T02:01:54;4.28;;;1.95;;
77598;SDS011;66758;52.078;5.070;2023-02-28T02:04:22;8.30;;;2.20;;
77598;SDS011;66758;52.078;5.070;2023-02-28T02:06:50;5.22;;;2.10;;
77598;SDS011;66758;52.078;5.070;2023-02-28T02:09:16;7.22;;;1.98;;
77598;SDS011;66758;52.078;5.070;2023-02-28T02:11:42;7.13;;;2.00;;
77598;SDS011;66758;52.078;5.070;2023-02-28T02:20:00;7.90;;;2.37;;
77598;SDS011;66758;52.078;5.070;2023-02-28T02:25:39;5.88;;;2.20;;
77598;SDS011;66758;52.078;5.070;2023-02-28T02:31:13;6.20;;;2.20;;
77598;SDS011;66758;52.078;5.070;2023-02-28T02:37:27;4.75;;;1.98;;
77598;SDS011;66758;52.078;5.070;2023-02-28T02:40:02;3.92;;;1.90;;
77598;SDS011;66758;52.078;5.070;2023-02-28T02:42:41;4.82;;;2.28;;
77598;SDS011;66758;52.078;5.070;2023-02-28T02:47:49;5.63;;;2.20;;
77598;SDS011;66758;52.078;5.070;2023-02-28T02:50:21;5.60;;;2.20;;
77598;SDS011;66758;52.078;5.070;2023-02-28T02:52:52;6.68;;;2.35;;
77598;SDS011;66758;52.078;5.070;2023-02-28T02:55:22;5.82;;;2.38;;
77598;SDS011;66758;52.078;5.070;2023-02-28T02:57:53;6.03;;;2.13;;
77598;SDS011;66758;52.078;5.070;2023-02-28T03:00:25;5.13;;;2.57;;
77598;SDS011;66758;52.078;5.070;2023-02-28T03:02:55;7.38;;;2.58;;
77598;SDS011;66758;52.078;5.070;2023-02-28T03:05:29;5.97;;;2.53;;
77598;SDS011;66758;52.078;5.070;2023-02-28T03:08:02;9.27;;;2.08;;
77598;SDS011;66758;52.078;5.070;2023-02-28T03:10:38;5.47;;;2.17;;
77598;SDS011;66758;52.078;5.070;2023-02-28T03:13:23;8.73;;;2.53;;
77598;SDS011;66758;52.078;5.070;2023-02-28T03:15:57;6.15;;;2.17;;
77598;SDS011;66758;52.078;5.070;2023-02-28T03:23:38;7.75;;;2.30;;
77598;SDS011;66758;52.078;5.070;2023-02-28T03:26:28;5.77;;;2.80;;
77598;SDS011;66758;52.078;5.070;2023-02-28T03:32:04;7.90;;;2.80;;
77598;SDS011;66758;52.078;5.070;2023-02-28T03:34:46;6.88;;;2.30;;
77598;SDS011;66758;52.078;5.070;2023-02-28T03:37:20;8.02;;;2.80;;
77598;SDS011;66758;52.078;5.070;2023-02-28T03:40:01;5.67;;;2.40;;
77598;SDS011;66758;52.078;5.070;2023-02-28T03:42:31;10.38;;;2.90;;
77598;SDS011;66758;52.078;5.070;2023-02-28T03:45:02;4.70;;;2.40;;
77598;SDS011;66758;52.078;5.070;2023-02-28T03:47:46;4.03;;;2.38;;
77598;SDS011;66758;52.078;5.070;2023-02-28T03:50:37;5.45;;;2.40;;
77598;SDS011;66758;52.078;5.070;2023-02-28T03:54:06;4.63;;;3.00;;
77598;SDS011;66758;52.078;5.070;2023-02-28T03:56:17;6.65;;;2.42;;
77598;SDS011;66758;52.078;5.070;2023-02-28T04:01:50;7.15;;;3.25;;
77598;SDS011;66758;52.078;5.070;2023-02-28T04:04:17;5.82;;;3.20;;
77598;SDS011;66758;52.078;5.070;2023-02-28T04:06:43;6.67;;;3.03;;
77598;SDS011;66758;52.078;5.070;2023-02-28T04:09:11;6.82;;;3.00;;
77598;SDS011;66758;52.078;5.070;2023-02-28T04:14:06;5.85;;;3.10;;
77598;SDS011;66758;52.078;5.070;2023-02-28T04:16:33;8.55;;;3.58;;
77598;SDS011;66758;52.078;5.070;2023-02-28T04:19:02;7.07;;;3.33;;
77598;SDS011;66758;52.078;5.070;2023-02-28T04:21:34;6.75;;;3.22;;
77598;SDS011;66758;52.078;5.070;2023-02-28T04:24:02;7.43;;;3.38;;
77598;SDS011;66758;52.078;5.070;2023-02-28T04:26:32;5.90;;;3.10;;
77598;SDS011;66758;52.078;5.070;2023-02-28T04:28:59;6.88;;;3.15;;
77598;SDS011;66758;52.078;5.070;2023-02-28T04:31:27;7.60;;;3.17;;
77598;SDS011;66758;52.078;5.070;2023-02-28T04:33:53;8.50;;;3.88;;
77598;SDS011;66758;52.078;5.070;2023-02-28T04:36:18;6.80;;;3.33;;
77598;SDS011;66758;52.078;5.070;2023-02-28T04:38:48;8.32;;;3.63;;
77598;SDS011;66758;52.078;5.070;2023-02-28T04:41:14;9.00;;;3.25;;
77598;SDS011;66758;52.078;5.070;2023-02-28T04:43:40;7.55;;;3.22;;
77598;SDS011;66758;52.078;5.070;2023-02-28T04:46:06;6.10;;;3.07;;
77598;SDS011;66758;52.078;5.070;2023-02-28T04:48:33;8.27;;;3.35;;
77598;SDS011;66758;52.078;5.070;2023-02-28T04:51:05;8.98;;;3.17;;
77598;SDS011;66758;52.078;5.070;2023-02-28T04:53:33;7.07;;;3.05;;
77598;SDS011;66758;52.078;5.070;2023-02-28T04:56:00;7.60;;;3.07;;
77598;SDS011;66758;52.078;5.070;2023-02-28T04:58:26;8.60;;;2.88;;
77598;SDS011;66758;52.078;5.070;2023-02-28T05:00:52;5.32;;;2.40;;
77598;SDS011;66758;52.078;5.070;2023-02-28T05:03:18;3.63;;;2.05;;
77598;SDS011;66758;52.078;5.070;2023-02-28T05:05:46;8.13;;;2.47;;
77598;SDS011;66758;52.078;5.070;2023-02-28T05:08:12;5.20;;;2.33;;
77598;SDS011;66758;52.078;5.070;2023-02-28T05:10:37;4.13;;;2.35;;
77598;SDS011;66758;52.078;5.070;2023-02-28T05:13:03;4.35;;;2.25;;
77598;SDS011;66758;52.078;5.070;2023-02-28T05:15:29;6.73;;;2.33;;
77598;SDS011;66758;52.078;5.070;2023-02-28T05:17:55;6.28;;;2.17;;
77598;SDS011;66758;52.078;5.070;2023-02-28T05:20:20;4.77;;;1.33;;
77598;SDS011;66758;52.078;5.070;2023-02-28T05:22:46;4.15;;;1.70;;
77598;SDS011;66758;52.078;5.070;2023-02-28T05:25:21;5.75;;;1.83;;
77598;SDS011;66758;52.078;5.070;2023-02-28T05:27:47;3.67;;;1.73;;
77598;SDS011;66758;52.078;5.070;2023-02-28T05:30:14;4.83;;;1.73;;
77598;SDS011;66758;52.078;5.070;2023-02-28T05:32:40;4.68;;;1.73;;
77598;SDS011;66758;52.078;5.070;2023-02-28T05:35:10;4.93;;;1.80;;
77598;SDS011;66758;52.078;5.070;2023-02-28T05:37:37;4.85;;;1.73;;
77598;SDS011;66758;52.078;5.070;2023-02-28T05:40:04;7.55;;;2.35;;
77598;SDS011;66758;52.078;5.070;2023-02-28T05:42:32;4.43;;;1.80;;
77598;SDS011;66758;52.078;5.070;2023-02-28T05:44:58;4.07;;;1.65;;
77598;SDS011;66758;52.078;5.070;2023-02-28T05:47:24;4.07;;;1.98;;
77598;SDS011;66758;52.078;5.070;2023-02-28T05:49:49;5.50;;;2.50;;
77598;SDS011;66758;52.078;5.070;2023-02-28T05:52:15;4.63;;;2.20;;
77598;SDS011;66758;52.078;5.070;2023-02-28T05:54:41;5.97;;;2.35;;
77598;SDS011;66758;52.078;5.070;2023-02-28T05:57:06;6.50;;;2.20;;
77598;SDS011;66758;52.078;5.070;2023-02-28T05:59:32;5.93;;;2.60;;
77598;SDS011;66758;52.078;5.070;2023-02-28T06:02:05;4.00;;;2.13;;
77598;SDS011;66758;52.078;5.070;2023-02-28T06:04:31;8.23;;;2.33;;
77598;SDS011;66758;52.078;5.070;2023-02-28T06:06:57;4.37;;;2.23;;
77598;SDS011;66758;52.078;5.070;2023-02-28T06:09:23;6.85;;;2.60;;
77598;SDS011;66758;52.078;5.070;2023-02-28T06:11:48;4.27;;;1.90;;
77598;SDS011;66758;52.078;5.070;2023-02-28T06:14:15;4.85;;;2.47;;
77598;SDS011;66758;52.078;5.070;2023-02-28T06:16:43;4.30;;;2.45;;
77598;SDS011;66758;52.078;5.070;2023-02-28T06:19:08;4.03;;;2.37;;
77598;SDS011;66758;52.078;5.070;2023-02-28T06:21:34;7.85;;;2.67;;
77598;SDS011;66758;52.078;5.070;2023-02-28T06:24:01;6.72;;;2.83;;
77598;SDS011;66758;52.078;5.070;2023-02-28T06:26:31;4.95;;;2.83;;
77598;SDS011;66758;52.078;5.070;2023-02-28T06:28:56;6.07;;;3.07;;
77598;SDS011;66758;52.078;5.070;2023-02-28T06:31:22;7.78;;;3.13;;
77598;SDS011;66758;52.078;5.070;2023-02-28T06:33:51;6.07;;;2.97;;
77598;SDS011;66758;52.078;5.070;2023-02-28T06:36:17;6.30;;;3.10;;
77598;SDS011;66758;52.078;5.070;2023-02-28T06:38:44;8.05;;;3.35;;
77598;SDS011;66758;52.078;5.070;2023-02-28T06:41:09;5.38;;;3.17;;
77598;SDS011;66758;52.078;5.070;2023-02-28T06:43:36;7.20;;;3.50;;
77598;SDS011;66758;52.078;5.070;2023-02-28T06:46:05;5.60;;;3.63;;
77598;SDS011;66758;52.078;5.070;2023-02-28T06:48:33;5.97;;;3.40;;
77598;SDS011;66758;52.078;5.070;2023-02-28T06:51:03;8.10;;;3.70;;
77598;SDS011;66758;52.078;5.070;2023-02-28T06:53:30;6.85;;;3.90;;
77598;SDS011;66758;52.078;5.070;2023-02-28T06:55:57;5.63;;;3.22;;
77598;SDS011;66758;52.078;5.070;2023-02-28T06:58:22;6.70;;;3.70;;
77598;SDS011;66758;52.078;5.070;2023-02-28T07:00:52;7.82;;;3.67;;
77598;SDS011;66758;52.078;5.070;2023-02-28T07:03:18;5.65;;;3.47;;
77598;SDS011;66758;52.078;5.070;2023-02-28T07:05:44;8.25;;;3.58;;
77598;SDS011;66758;52.078;5.070;2023-02-28T07:08:11;6.30;;;3.23;;
77598;SDS011;66758;52.078;5.070;2023-02-28T07:10:37;6.97;;;3.67;;
77598;SDS011;66758;52.078;5.070;2023-02-28T07:13:04;7.00;;;3.83;;
77598;SDS011;66758;52.078;5.070;2023-02-28T07:15:30;7.05;;;4.10;;
77598;SDS011;66758;52.078;5.070;2023-02-28T07:17:56;9.07;;;5.40;;
77598;SDS011;66758;52.078;5.070;2023-02-28T07:20:22;11.30;;;6.00;;
77598;SDS011;66758;52.078;5.070;2023-02-28T07:22:48;14.70;;;8.73;;
77598;SDS011;66758;52.078;5.070;2023-02-28T07:25:20;14.30;;;8.57;;
77598;SDS011;66758;52.078;5.070;2023-02-28T07:27:49;12.82;;;7.88;;
77598;SDS011;66758;52.078;5.070;2023-02-28T07:30:17;13.65;;;6.50;;
77598;SDS011;66758;52.078;5.070;2023-02-28T07:32:43;12.45;;;6.45;;
77598;SDS011;66758;52.078;5.070;2023-02-28T07:35:09;11.77;;;7.07;;
77598;SDS011;66758;52.078;5.070;2023-02-28T07:37:35;13.25;;;7.47;;
77598;SDS011;66758;52.078;5.070;2023-02-28T07:40:05;12.02;;;7.80;;
77598;SDS011;66758;52.078;5.070;2023-02-28T07:42:36;13.67;;;7.67;;
77598;SDS011;66758;52.078;5.070;2023-02-28T07:45:02;9.65;;;6.55;;
77598;SDS011;66758;52.078;5.070;2023-02-28T07:47:31;9.85;;;6.00;;
77598;SDS011;66758;52.078;5.070;2023-02-28T07:49:57;10.50;;;6.07;;
77598;SDS011;66758;52.078;5.070;2023-02-28T07:52:23;10.90;;;5.80;;
77598;SDS011;66758;52.078;5.070;2023-02-28T07:54:55;12.77;;;6.60;;
77598;SDS011;66758;52.078;5.070;2023-02-28T07:57:22;9.65;;;5.78;;
77598;SDS011;66758;52.078;5.070;2023-02-28T07:59:50;11.35;;;5.63;;
77598;SDS011;66758;52.078;5.070;2023-02-28T08:02:16;13.27;;;5.37;;
77598;SDS011;66758;52.078;5.070;2023-02-28T08:04:43;10.93;;;5.07;;
77598;SDS011;66758;52.078;5.070;2023-02-28T08:07:09;9.70;;;5.40;;
77598;SDS011;66758;52.078;5.070;2023-02-28T08:09:38;12.60;;;5.10;;
77598;SDS011;66758;52.078;5.070;2023-02-28T08:12:05;10.00;;;5.37;;
77598;SDS011;66758;52.078;5.070;2023-02-28T08:14:31;9.45;;;5.47;;
77598;SDS011;66758;52.078;5.070;2023-02-28T08:16:57;14.85;;;6.95;;
77598;SDS011;66758;52.078;5.070;2023-02-28T08:19:22;8.80;;;5.00;;
77598;SDS011;66758;52.078;5.070;2023-02-28T08:21:48;12.02;;;5.18;;
77598;SDS011;66758;52.078;5.070;2023-02-28T08:24:14;10.40;;;5.60;;
77598;SDS011;66758;52.078;5.070;2023-02-28T08:26:39;8.10;;;4.60;;
77598;SDS011;66758;52.078;5.070;2023-02-28T08:29:05;9.52;;;4.72;;
77598;SDS011;66758;52.078;5.070;2023-02-28T08:31:31;11.80;;;4.93;;
77598;SDS011;66758;52.078;5.070;2023-02-28T08:33:56;9.77;;;4.47;;
77598;SDS011;66758;52.078;5.070;2023-02-28T08:36:24;9.88;;;4.90;;
77598;SDS011;66758;52.078;5.070;2023-02-28T08:38:51;9.57;;;4.65;;
77598;SDS011;66758;52.078;5.070;2023-02-28T08:41:16;10.37;;;4.83;;
77598;SDS011;66758;52.078;5.070;2023-02-28T08:43:42;9.10;;;4.63;;
77598;SDS011;66758;52.078;5.070;2023-02-28T08:46:09;6.37;;;3.40;;
77598;SDS011;66758;52.078;5.070;2023-02-28T08:48:37;5.78;;;2.97;;
77598;SDS011;66758;52.078;5.070;2023-02-28T08:51:07;8.93;;;3.33;;
77598;SDS011;66758;52.078;5.070;2023-02-28T08:53:36;6.05;;;2.90;;
77598;SDS011;66758;52.078;5.070;2023-02-28T08:56:07;5.30;;;3.17;;
77598;SDS011;66758;52.078;5.070;2023-02-28T08:58:42;4.20;;;2.42;;
77598;SDS011;66758;52.078;5.070;2023-02-28T09:01:10;6.82;;;2.50;;
77598;SDS011;66758;52.078;5.070;2023-02-28T09:03:41;6.22;;;2.70;;
77598;SDS011;66758;52.078;5.070;2023-02-28T09:06:07;6.53;;;2.92;;
77598;SDS011;66758;52.078;5.070;2023-02-28T09:08:34;6.00;;;2.30;;
77598;SDS011;66758;52.078;5.070;2023-02-28T09:11:00;7.25;;;2.72;;
77598;SDS011;66758;52.078;5.070;2023-02-28T09:13:27;4.30;;;2.47;;
77598;SDS011;66758;52.078;5.070;2023-02-28T09:15:53;4.15;;;2.20;;
77598;SDS011;66758;52.078;5.070;2023-02-28T09:18:19;4.60;;;2.35;;
77598;SDS011;66758;52.078;5.070;2023-02-28T09:20:45;3.70;;;2.00;;
77598;SDS011;66758;52.078;5.070;2023-02-28T09:23:11;7.00;;;2.30;;
77598;SDS011;66758;52.078;5.070;2023-02-28T09:25:38;3.63;;;2.00;;
77598;SDS011;66758;52.078;5.070;2023-02-28T09:28:09;3.50;;;2.30;;
77598;SDS011;66758;52.078;5.070;2023-02-28T09:30:36;4.80;;;1.75;;
77598;SDS011;66758;52.078;5.070;2023-02-28T09:33:02;5.18;;;2.17;;
77598;SDS011;66758;52.078;5.070;2023-02-28T09:35:28;6.55;;;1.85;;
77598;SDS011;66758;52.078;5.070;2023-02-28T09:37:55;3.30;;;1.80;;
77598;SDS011;66758;52.078;5.070;2023-02-28T09:40:22;5.43;;;2.00;;
77598;SDS011;66758;52.078;5.070;2023-02-28T09:42:51;3.65;;;2.00;;
77598;SDS011;66758;52.078;5.070;2023-02-28T09:45:38;3.85;;;1.98;;
77598;SDS011;66758;52.078;5.070;2023-02-28T09:48:12;3.90;;;1.90;;
77598;SDS011;66758;52.078;5.070;2023-02-28T09:50:43;6.17;;;2.23;;
77598;SDS011;66758;52.078;5.070;2023-02-28T09:53:28;4.85;;;1.80;;
77598;SDS011;66758;52.078;5.070;2023-02-28T09:56:21;3.88;;;2.00;;
77598;SDS011;66758;52.078;5.070;2023-02-28T10:01:51;4.05;;;1.80;;
77598;SDS011;66758;52.078;5.070;2023-02-28T10:13:17;4.65;;;2.10;;
77598;SDS011;66758;52.078;5.070;2023-02-28T10:15:50;2.83;;;1.65;;
77598;SDS011;66758;52.078;5.070;2023-02-28T10:18:23;2.97;;;1.40;;
77598;SDS011;66758;52.078;5.070;2023-02-28T10:20:53;3.38;;;1.25;;
77598;SDS011;66758;52.078;5.070;2023-02-28T10:23:28;2.50;;;1.48;;
77598;SDS011;66758;52.078;5.070;2023-02-28T10:26:04;4.28;;;1.10;;
77598;SDS011;66758;52.078;5.070;2023-02-28T10:28:36;2.78;;;1.52;;
77598;SDS011;66758;52.078;5.070;2023-02-28T10:31:02;3.53;;;1.37;;
77598;SDS011;66758;52.078;5.070;2023-02-28T10:33:29;3.30;;;1.60;;
77598;SDS011;66758;52.078;5.070;2023-02-28T10:35:57;3.40;;;1.60;;
77598;SDS011;66758;52.078;5.070;2023-02-28T10:38:28;2.73;;;1.20;;
77598;SDS011;66758;52.078;5.070;2023-02-28T10:41:08;3.58;;;1.80;;
77598;SDS011;66758;52.078;5.070;2023-02-28T10:43:44;2.63;;;1.60;;
77598;SDS011;66758;52.078;5.070;2023-02-28T10:46:16;4.07;;;1.60;;
77598;SDS011;66758;52.078;5.070;2023-02-28T10:49:02;5.50;;;1.42;;
77598;SDS011;66758;52.078;5.070;2023-02-28T10:51:34;3.37;;;1.17;;
77598;SDS011;66758;52.078;5.070;2023-02-28T10:54:04;5.68;;;1.70;;
77598;SDS011;66758;52.078;5.070;2023-02-28T10:56:31;4.43;;;1.65;;
77598;SDS011;66758;52.078;5.070;2023-02-28T11:01:53;3.15;;;1.45;;
77598;SDS011;66758;52.078;5.070;2023-02-28T11:04:20;2.70;;;1.40;;
77598;SDS011;66758;52.078;5.070;2023-02-28T11:06:59;3.45;;;1.50;;
77598;SDS011;66758;52.078;5.070;2023-02-28T11:09:34;3.00;;;1.42;;
77598;SDS011;66758;52.078;5.070;2023-02-28T11:12:04;3.53;;;1.67;;
77598;SDS011;66758;52.078;5.070;2023-02-28T11:14:46;3.77;;;1.70;;
77598;SDS011;66758;52.078;5.070;2023-02-28T11:17:22;3.50;;;1.52;;
77598;SDS011;66758;52.078;5.070;2023-02-28T11:19:51;41.95;;;22.55;;
77598;SDS011;66758;52.078;5.070;2023-02-28T11:22:36;9.15;;;4.47;;
77598;SDS011;66758;52.078;5.070;2023-02-28T11:25:21;2.85;;;1.90;;
77598;SDS011;66758;52.078;5.070;2023-02-28T11:27:50;9.13;;;1.73;;
77598;SDS011;66758;52.078;5.070;2023-02-28T11:33:28;3.65;;;1.67;;
77598;SDS011;66758;52.078;5.070;2023-02-28T11:35:57;2.88;;;1.60;;
77598;SDS011;66758;52.078;5.070;2023-02-28T11:38:26;3.38;;;1.60;;
77598;SDS011;66758;52.078;5.070;2023-02-28T11:43:30;3.22;;;1.58;;
77598;SDS011;66758;52.078;5.070;2023-02-28T12:08:31;5.83;;;1.70;;
77598;SDS011;66758;52.078;5.070;2023-02-28T12:11:31;3.08;;;1.70;;
77598;SDS011;66758;52.078;5.070;2023-02-28T12:17:13;3.40;;;1.90;;
77598;SDS011;66758;52.078;5.070;2023-02-28T12:20:05;2.75;;;1.20;;
77598;SDS011;66758;52.078;5.070;2023-02-28T12:22:49;7.93;;;1.80;;
77598;SDS011;66758;52.078;5.070;2023-02-28T12:25:36;3.65;;;1.38;;
77598;SDS011;66758;52.078;5.070;2023-02-28T12:28:13;4.47;;;1.67;;
77598;SDS011;66758;52.078;5.070;2023-02-28T12:30:45;2.90;;;1.40;;
77598;SDS011;66758;52.078;5.070;2023-02-28T12:33:36;4.55;;;2.05;;
77598;SDS011;66758;52.078;5.070;2023-02-28T12:36:09;8.15;;;1.70;;
77598;SDS011;66758;52.078;5.070;2023-02-28T12:38:39;6.10;;;1.60;;
77598;SDS011;66758;52.078;5.070;2023-02-28T12:43:38;4.47;;;1.77;;
77598;SDS011;66758;52.078;5.070;2023-02-28T12:46:17;3.13;;;1.38;;
77598;SDS011;66758;52.078;5.070;2023-02-28T12:48:53;3.00;;;1.27;;
77598;SDS011;66758;52.078;5.070;2023-02-28T12:51:21;6.03;;;1.50;;
77598;SDS011;66758;52.078;5.070;2023-02-28T12:53:53;3.10;;;1.50;;
77598;SDS011;66758;52.078;5.070;2023-02-28T12:59:10;2.78;;;1.08;;
77598;SDS011;66758;52.078;5.070;2023-02-28T13:05:13;3.60;;;1.30;;
77598;SDS011;66758;52.078;5.070;2023-02-28T13:10:24;3.55;;;1.35;;
77598;SDS011;66758;52.078;5.070;2023-02-28T13:13:02;3.38;;;1.38;;
77598;SDS011;66758;52.078;5.070;2023-02-28T13:15:29;3.40;;;1.08;;
77598;SDS011;66758;52.078;5.070;2023-02-28T13:17:56;5.03;;;1.50;;
77598;SDS011;66758;52.078;5.070;2023-02-28T13:20:24;3.35;;;1.60;;
77598;SDS011;66758;52.078;5.070;2023-02-28T13:22:55;3.72;;;1.20;;
77598;SDS011;66758;52.078;5.070;2023-02-28T13:27:48;3.77;;;1.27;;
77598;SDS011;66758;52.078;5.070;2023-02-28T13:33:21;2.92;;;1.40;;
77598;SDS011;66758;52.078;5.070;2023-02-28T13:36:00;2.70;;;1.30;;
77598;SDS011;66758;52.078;5.070;2023-02-28T13:38:37;3.58;;;1.63;;
77598;SDS011;66758;52.078;5.070;2023-02-28T13:44:01;3.20;;;1.17;;
77598;SDS011;66758;52.078;5.070;2023-02-28T13:46:27;4.07;;;1.70;;
77598;SDS011;66758;52.078;5.070;2023-02-28T13:48:53;3.50;;;1.60;;
77598;SDS011;66758;52.078;5.070;2023-02-28T13:51:37;4.85;;;2.00;;
77598;SDS011;66758;52.078;5.070;2023-02-28T13:57:04;6.75;;;1.48;;
77598;SDS011;66758;52.078;5.070;2023-02-28T14:00:07;2.63;;;1.43;;
77598;SDS011;66758;52.078;5.070;2023-02-28T14:02:57;3.63;;;1.70;;
77598;SDS011;66758;52.078;5.070;2023-02-28T14:05:38;4.45;;;1.80;;
77598;SDS011;66758;52.078;5.070;2023-02-28T14:08:05;3.05;;;1.50;;
77598;SDS011;66758;52.078;5.070;2023-02-28T14:10:49;4.63;;;2.10;;
77598;SDS011;66758;52.078;5.070;2023-02-28T14:13:43;4.57;;;1.42;;
77598;SDS011;66758;52.078;5.070;2023-02-28T14:16:14;4.15;;;1.67;;
77598;SDS011;66758;52.078;5.070;2023-02-28T14:19:14;7.75;;;1.73;;
77598;SDS011;66758;52.078;5.070;2023-02-28T14:24:51;9.10;;;1.60;;
77598;SDS011;66758;52.078;5.070;2023-02-28T14:38:33;3.27;;;1.60;;
77598;SDS011;66758;52.078;5.070;2023-02-28T14:41:12;3.42;;;1.30;;
77598;SDS011;66758;52.078;5.070;2023-02-28T14:43:49;4.05;;;1.60;;
77598;SDS011;66758;52.078;5.070;2023-02-28T14:46:17;4.68;;;1.90;;
77598;SDS011;66758;52.078;5.070;2023-02-28T14:48:48;4.18;;;1.60;;
77598;SDS011;66758;52.078;5.070;2023-02-28T14:51:21;2.80;;;1.63;;
77598;SDS011;66758;52.078;5.070;2023-02-28T14:53:52;7.35;;;1.52;;
77598;SDS011;66758;52.078;5.070;2023-02-28T14:56:25;4.50;;;1.73;;
77598;SDS011;66758;52.078;5.070;2023-02-28T14:59:03;3.05;;;1.63;;
77598;SDS011;66758;52.078;5.070;2023-02-28T15:01:29;2.75;;;1.50;;
77598;SDS011;66758;52.078;5.070;2023-02-28T15:03:58;4.50;;;1.77;;
77598;SDS011;66758;52.078;5.070;2023-02-28T15:06:29;4.22;;;1.77;;
77598;SDS011;66758;52.078;5.070;2023-02-28T15:09:10;3.63;;;1.42;;
77598;SDS011;66758;52.078;5.070;2023-02-28T15:11:40;3.17;;;1.50;;
77598;SDS011;66758;52.078;5.070;2023-02-28T15:14:07;3.55;;;1.85;;
77598;SDS011;66758;52.078;5.070;2023-02-28T15:16:39;3.83;;;1.87;;
77598;SDS011;66758;52.078;5.070;2023-02-28T15:19:14;3.08;;;1.63;;
77598;SDS011;66758;52.078;5.070;2023-02-28T15:21:46;3.42;;;1.90;;
77598;SDS011;66758;52.078;5.070;2023-02-28T15:24:19;4.78;;;2.00;;
77598;SDS011;66758;52.078;5.070;2023-02-28T15:26:56;2.83;;;1.67;;
77598;SDS011;66758;52.078;5.070;2023-02-28T15:29:24;3.87;;;1.80;;
77598;SDS011;66758;52.078;5.070;2023-02-28T15:32:03;3.40;;;1.88;;
77598;SDS011;66758;52.078;5.070;2023-02-28T15:34:41;3.65;;;2.08;;
77598;SDS011;66758;52.078;5.070;2023-02-28T15:39:55;3.65;;;1.88;;
77598;SDS011;66758;52.078;5.070;2023-02-28T15:42:30;3.67;;;1.70;;
77598;SDS011;66758;52.078;5.070;2023-02-28T15:44:56;3.80;;;1.90;;
77598;SDS011;66758;52.078;5.070;2023-02-28T15:47:27;4.13;;;2.40;;
77598;SDS011;66758;52.078;5.070;2023-02-28T15:50:01;3.28;;;1.80;;
77598;SDS011;66758;52.078;5.070;2023-02-28T15:52:33;3.35;;;2.00;;
77598;SDS011;66758;52.078;5.070;2023-02-28T15:55:28;3.83;;;1.80;;
77598;SDS011;66758;52.078;5.070;2023-02-28T15:57:53;3.17;;;1.80;;
77598;SDS011;66758;52.078;5.070;2023-02-28T16:00:24;4.70;;;2.10;;
77598;SDS011;66758;52.078;5.070;2023-02-28T16:02:51;4.50;;;1.63;;
77598;SDS011;66758;52.078;5.070;2023-02-28T16:07:53;4.07;;;2.33;;
77598;SDS011;66758;52.078;5.070;2023-02-28T16:10:20;4.95;;;1.77;;
77598;SDS011;66758;52.078;5.070;2023-02-28T16:12:50;4.50;;;1.90;;
77598;SDS011;66758;52.078;5.070;2023-02-28T16:15:27;3.47;;;1.70;;
77598;SDS011;66758;52.078;5.070;2023-02-28T16:17:55;4.90;;;1.85;;
77598;SDS011;66758;52.078;5.070;2023-02-28T16:20:23;3.80;;;1.80;;
77598;SDS011;66758;52.078;5.070;2023-02-28T16:22:52;3.75;;;1.60;;
77598;SDS011;66758;52.078;5.070;2023-02-28T16:25:19;8.32;;;1.83;;
77598;SDS011;66758;52.078;5.070;2023-02-28T16:27:48;3.28;;;1.50;;
77598;SDS011;66758;52.078;5.070;2023-02-28T16:30:22;3.20;;;1.55;;
77598;SDS011;66758;52.078;5.070;2023-02-28T16:32:50;4.77;;;1.83;;
77598;SDS011;66758;52.078;5.070;2023-02-28T16:35:17;4.43;;;1.80;;
77598;SDS011;66758;52.078;5.070;2023-02-28T16:37:43;5.15;;;2.08;;
77598;SDS011;66758;52.078;5.070;2023-02-28T16:40:13;4.13;;;1.80;;
77598;SDS011;66758;52.078;5.070;2023-02-28T16:42:41;3.40;;;1.63;;
77598;SDS011;66758;52.078;5.070;2023-02-28T16:45:11;5.07;;;1.63;;
77598;SDS011;66758;52.078;5.070;2023-02-28T16:47:41;3.50;;;1.85;;
77598;SDS011;66758;52.078;5.070;2023-02-28T16:50:14;5.33;;;1.90;;
77598;SDS011;66758;52.078;5.070;2023-02-28T16:52:45;4.20;;;1.75;;
77598;SDS011;66758;52.078;5.070;2023-02-28T16:55:11;4.40;;;1.67;;
77598;SDS011;66758;52.078;5.070;2023-02-28T16:57:36;3.83;;;1.80;;
77598;SDS011;66758;52.078;5.070;2023-02-28T17:00:03;3.57;;;1.97;;
77598;SDS011;66758;52.078;5.070;2023-02-28T17:02:29;4.10;;;1.80;;
77598;SDS011;66758;52.078;5.070;2023-02-28T17:04:55;4.53;;;1.77;;
77598;SDS011;66758;52.078;5.070;2023-02-28T17:07:20;4.47;;;2.20;;